createdAt,value
2019-04-27T00:00:14.162Z,18.14
2019-04-27T00:01:19.692Z,18.10
2019-04-27T00:02:28.096Z,18.07
2019-04-27T00:03:41.496Z,18.03
2019-04-27T00:04:48.634Z,18.01
2019-04-27T00:06:08.489Z,18.00
2019-04-27T00:07:28.513Z,18.01
2019-04-27T00:08:38.744Z,18.01
2019-04-27T00:09:50.182Z,17.93
2019-04-27T00:10:50.805Z,17.89
2019-04-27T00:11:59.018Z,17.87
2019-04-27T00:13:05.693Z,17.81
2019-04-27T00:14:10.326Z,17.79
2019-04-27T00:15:16.068Z,17.81
2019-04-27T00:16:21.384Z,17.82
2019-04-27T00:17:49.006Z,17.87
2019-04-27T00:18:49.816Z,17.88
2019-04-27T00:19:56.035Z,17.88
2019-04-27T00:21:04.086Z,17.86
2019-04-27T00:22:12.959Z,17.87
2019-04-27T00:23:19.473Z,17.86
2019-04-27T00:24:23.549Z,17.86
2019-04-27T00:25:27.422Z,17.85
2019-04-27T00:26:31.100Z,17.78
2019-04-27T00:27:34.773Z,17.78
2019-04-27T00:28:38.475Z,17.80
2019-04-27T00:29:43.186Z,17.81
2019-04-27T00:30:47.011Z,17.82
2019-04-27T00:31:50.688Z,17.76
2019-04-27T00:32:54.324Z,17.72
2019-04-27T00:33:58.363Z,17.70
2019-04-27T00:35:03.744Z,17.73
2019-04-27T00:36:09.153Z,17.74
2019-04-27T00:37:33.598Z,17.74
2019-04-27T00:38:39.401Z,17.77
2019-04-27T00:39:47.243Z,17.79
2019-04-27T00:40:58.148Z,17.77
2019-04-27T00:42:03.283Z,17.74
2019-04-27T00:43:07.071Z,17.73
2019-04-27T00:44:10.727Z,17.72
2019-04-27T00:45:15.153Z,17.70
2019-04-27T00:46:18.797Z,17.70
2019-04-27T00:47:23.877Z,17.72
2019-04-27T00:48:27.700Z,17.69
2019-04-27T00:49:32.907Z,17.65
2019-04-27T00:50:36.568Z,17.65
2019-04-27T00:51:40.225Z,17.66
2019-04-27T00:52:43.849Z,17.65
2019-04-27T00:53:47.510Z,17.64
2019-04-27T00:54:51.169Z,17.62
2019-04-27T00:56:03.581Z,17.60
2019-04-27T00:57:09.297Z,17.58
2019-04-27T00:58:14.565Z,17.38
2019-04-27T00:59:36.261Z,17.33
2019-04-27T01:00:50.538Z,17.34
2019-04-27T01:02:13.923Z,17.38
2019-04-27T01:03:19.224Z,17.39
2019-04-27T01:04:24.523Z,17.36
2019-04-27T01:05:29.772Z,17.36
2019-04-27T01:06:33.664Z,17.34
2019-04-27T01:07:37.438Z,17.31
2019-04-27T01:08:42.766Z,17.17
2019-04-27T01:09:47.233Z,17.05
2019-04-27T01:10:50.915Z,17.09
2019-04-27T01:11:54.542Z,17.12
2019-04-27T01:12:58.249Z,17.16
2019-04-27T01:14:03.845Z,17.19
2019-04-27T01:15:08.115Z,17.21
2019-04-27T01:16:13.209Z,17.24
2019-04-27T01:17:18.831Z,17.27
2019-04-27T01:18:22.593Z,17.28
2019-04-27T01:19:26.234Z,17.28
2019-04-27T01:20:30.205Z,17.25
2019-04-27T01:21:34.034Z,17.22
2019-04-27T01:22:39.124Z,17.18
2019-04-27T01:23:43.099Z,17.12
2019-04-27T01:24:46.725Z,17.09
2019-04-27T01:25:54.519Z,17.10
2019-04-27T01:27:15.719Z,17.13
2019-04-27T01:28:23.960Z,17.13
2019-04-27T01:29:29.305Z,17.12
2019-04-27T01:30:34.598Z,17.10
2019-04-27T01:31:39.660Z,17.07
2019-04-27T01:32:43.513Z,16.95
2019-04-27T01:33:48.796Z,16.85
2019-04-27T01:34:52.578Z,16.85
2019-04-27T01:35:56.226Z,16.80
2019-04-27T01:36:59.860Z,16.83
2019-04-27T01:38:03.555Z,16.86
2019-04-27T01:39:10.148Z,16.82
2019-04-27T01:40:13.774Z,16.84
2019-04-27T01:41:19.216Z,16.85
2019-04-27T01:42:22.949Z,16.89
2019-04-27T01:43:26.631Z,16.86
2019-04-27T01:44:30.286Z,16.86
2019-04-27T01:45:33.941Z,16.85
2019-04-27T01:46:37.569Z,16.86
2019-04-27T01:47:41.210Z,16.90
2019-04-27T01:48:44.908Z,16.89
2019-04-27T01:49:49.510Z,16.89
2019-04-27T01:50:53.285Z,16.89
2019-04-27T01:51:56.933Z,16.89
2019-04-27T01:53:00.568Z,16.89
2019-04-27T01:54:06.041Z,16.88
2019-04-27T01:55:09.801Z,16.87
2019-04-27T01:56:13.515Z,16.80
2019-04-27T01:57:17.182Z,16.79
2019-04-27T01:58:20.825Z,16.81
2019-04-27T01:59:24.494Z,16.80
2019-04-27T02:00:32.443Z,16.83
2019-04-27T02:01:46.602Z,16.81
2019-04-27T02:02:52.005Z,16.81
2019-04-27T02:04:00.196Z,16.79
2019-04-27T02:05:09.668Z,16.78
2019-04-27T02:06:13.339Z,16.77
2019-04-27T02:07:16.967Z,16.74
2019-04-27T02:08:20.619Z,16.75
2019-04-27T02:09:24.342Z,16.76
2019-04-27T02:10:29.276Z,16.73
2019-04-27T02:11:33.080Z,16.69
2019-04-27T02:12:36.734Z,16.69
2019-04-27T02:13:40.372Z,16.69
2019-04-27T02:14:44.030Z,16.69
2019-04-27T02:15:48.710Z,16.69
2019-04-27T02:16:52.869Z,16.68
2019-04-27T02:17:56.534Z,16.67
2019-04-27T02:19:00.188Z,16.63
2019-04-27T02:20:05.664Z,16.61
2019-04-27T02:21:09.446Z,16.57
2019-04-27T02:22:13.076Z,16.55
2019-04-27T02:23:16.734Z,16.56
2019-04-27T02:24:20.393Z,16.53
2019-04-27T02:25:24.135Z,16.53
2019-04-27T02:26:29.488Z,16.52
2019-04-27T02:27:34.387Z,16.57
2019-04-27T02:28:56.089Z,16.54
2019-04-27T02:30:04.096Z,16.51
2019-04-27T02:31:24.384Z,16.49
2019-04-27T02:32:32.224Z,16.46
2019-04-27T02:33:43.520Z,16.40
2019-04-27T02:34:51.655Z,16.36
2019-04-27T02:35:55.299Z,16.33
2019-04-27T02:36:59.542Z,16.33
2019-04-27T02:38:04.347Z,16.33
2019-04-27T02:39:09.532Z,16.28
2019-04-27T02:40:49.614Z,16.25
2019-04-27T02:41:53.497Z,16.24
2019-04-27T02:42:57.227Z,16.24
2019-04-27T02:44:02.550Z,16.23
2019-04-27T02:45:06.456Z,16.24
2019-04-27T02:46:10.202Z,16.25
2019-04-27T02:47:13.923Z,16.24
2019-04-27T02:48:19.686Z,16.24
2019-04-27T02:49:22.982Z,16.24
2019-04-27T02:50:26.624Z,16.24
2019-04-27T02:51:43.717Z,16.22
2019-04-27T02:52:50.106Z,16.23
2019-04-27T02:53:54.366Z,16.18
2019-04-27T02:54:59.374Z,16.16
2019-04-27T02:56:03.176Z,16.14
2019-04-27T02:57:09.621Z,16.14
2019-04-27T02:58:13.070Z,16.13
2019-04-27T02:59:19.693Z,16.12
2019-04-27T03:00:22.416Z,16.12
2019-04-27T03:01:30.164Z,16.15
2019-04-27T03:02:34.710Z,16.14
2019-04-27T03:03:38.367Z,16.14
2019-04-27T03:04:42.004Z,16.14
2019-04-27T03:05:45.691Z,16.14
2019-04-27T03:06:50.058Z,16.14
2019-04-27T03:07:53.957Z,16.13
2019-04-27T03:09:00.001Z,16.10
2019-04-27T03:10:03.036Z,16.10
2019-04-27T03:11:06.743Z,16.09
2019-04-27T03:12:10.512Z,16.06
2019-04-27T03:13:15.736Z,16.05
2019-04-27T03:14:32.648Z,16.04
2019-04-27T03:15:30.352Z,16.04
2019-04-27T03:16:39.446Z,16.05
2019-04-27T03:18:01.274Z,16.03
2019-04-27T03:19:24.905Z,15.97
2019-04-27T03:20:46.463Z,15.95
2019-04-27T03:21:59.359Z,15.92
2019-04-27T03:23:04.544Z,15.91
2019-04-27T03:24:09.920Z,15.89
2019-04-27T03:25:16.959Z,15.88
2019-04-27T03:26:22.266Z,15.87
2019-04-27T03:27:30.128Z,15.83
2019-04-27T03:28:33.422Z,15.72
2019-04-27T03:29:37.173Z,15.68
2019-04-27T03:30:43.546Z,15.72
2019-04-27T03:31:53.492Z,15.72
2019-04-27T03:32:56.631Z,15.73
2019-04-27T03:34:04.313Z,15.75
2019-04-27T03:35:04.438Z,15.69
2019-04-27T03:36:12.401Z,15.69
2019-04-27T03:37:13.456Z,15.70
2019-04-27T03:38:19.565Z,15.72
2019-04-27T03:39:22.622Z,15.71
2019-04-27T03:40:26.261Z,15.72
2019-04-27T03:41:29.978Z,15.74
2019-04-27T03:42:37.368Z,15.75
2019-04-27T03:43:40.389Z,15.75
2019-04-27T03:44:44.134Z,15.73
2019-04-27T03:45:49.726Z,15.74
2019-04-27T03:46:53.170Z,15.76
2019-04-27T03:47:56.811Z,15.77
2019-04-27T03:49:00.728Z,15.78
2019-04-27T03:50:06.854Z,15.82
2019-04-27T03:51:12.186Z,15.81
2019-04-27T03:52:20.070Z,15.80
2019-04-27T03:53:25.865Z,15.82
2019-04-27T03:54:33.641Z,15.82
2019-04-27T03:55:50.122Z,15.85
2019-04-27T03:56:54.806Z,15.88
2019-04-27T03:58:11.831Z,15.90
2019-04-27T03:59:19.597Z,15.91
2019-04-27T04:00:29.996Z,15.90
2019-04-27T04:01:33.325Z,15.91
2019-04-27T04:02:37.092Z,15.90
2019-04-27T04:03:40.827Z,15.87
2019-04-27T04:04:44.782Z,15.92
2019-04-27T04:05:49.439Z,15.90
2019-04-27T04:06:53.795Z,15.91
2019-04-27T04:07:57.492Z,15.92
2019-04-27T04:09:01.359Z,15.88
2019-04-27T04:10:07.153Z,15.88
2019-04-27T04:11:15.387Z,15.88
2019-04-27T04:12:36.916Z,15.95
2019-04-27T04:13:42.219Z,15.94
2019-04-27T04:14:45.899Z,15.93
2019-04-27T04:16:10.533Z,15.94
2019-04-27T04:17:14.679Z,15.97
2019-04-27T04:18:19.610Z,15.99
2019-04-27T04:19:23.711Z,16.01
2019-04-27T04:20:27.380Z,16.03
2019-04-27T04:21:31.017Z,16.06
2019-04-27T04:22:40.378Z,16.08
2019-04-27T04:23:43.737Z,16.09
2019-04-27T04:24:47.431Z,16.11
2019-04-27T04:25:51.787Z,16.11
2019-04-27T04:26:55.445Z,16.12
2019-04-27T04:28:00.609Z,16.16
2019-04-27T04:29:04.572Z,16.18
2019-04-27T04:30:11.805Z,16.20
2019-04-27T04:31:14.068Z,16.21
2019-04-27T04:32:19.240Z,16.21
2019-04-27T04:33:23.388Z,16.25
2019-04-27T04:34:29.698Z,16.26
2019-04-27T04:35:33.311Z,16.27
2019-04-27T04:36:37.185Z,16.26
2019-04-27T04:37:40.824Z,16.26
2019-04-27T04:38:44.464Z,16.27
2019-04-27T04:39:53.104Z,16.28
2019-04-27T04:40:55.335Z,16.29
2019-04-27T04:42:10.338Z,16.31
2019-04-27T04:43:15.763Z,16.33
2019-04-27T04:44:21.046Z,16.33
2019-04-27T04:45:30.526Z,16.36
2019-04-27T04:46:39.942Z,16.38
2019-04-27T04:47:45.289Z,16.37
2019-04-27T04:48:50.315Z,16.34
2019-04-27T04:50:07.358Z,16.33
2019-04-27T04:51:00.056Z,16.35
2019-04-27T04:52:03.987Z,16.32
2019-04-27T04:53:11.781Z,16.29
2019-04-27T04:54:13.032Z,16.29
2019-04-27T04:55:16.672Z,16.28
2019-04-27T04:56:20.309Z,16.26
2019-04-27T04:57:24.001Z,16.26
2019-04-27T04:58:29.417Z,16.23
2019-04-27T04:59:33.172Z,16.21
2019-04-27T05:00:37.031Z,16.18
2019-04-27T05:01:40.683Z,16.15
2019-04-27T05:02:44.752Z,16.16
2019-04-27T05:03:48.916Z,16.14
2019-04-27T05:04:52.659Z,16.12
2019-04-27T05:05:56.361Z,16.05
2019-04-27T05:07:00.019Z,16.08
2019-04-27T05:08:03.691Z,15.98
2019-04-27T05:09:09.162Z,15.99
2019-04-27T05:10:12.956Z,15.99
2019-04-27T05:11:16.590Z,16.03
2019-04-27T05:12:20.347Z,16.03
2019-04-27T05:13:24.189Z,16.09
2019-04-27T05:14:28.870Z,16.13
2019-04-27T05:15:32.720Z,16.16
2019-04-27T05:16:36.358Z,16.17
2019-04-27T05:17:40.035Z,16.09
2019-04-27T05:18:43.688Z,16.14
2019-04-27T05:19:49.124Z,16.20
2019-04-27T05:20:54.463Z,16.28
2019-04-27T05:21:59.284Z,16.34
2019-04-27T05:23:02.970Z,16.38
2019-04-27T05:24:06.656Z,16.44
2019-04-27T05:25:10.984Z,16.47
2019-04-27T05:26:15.102Z,16.42
2019-04-27T05:27:19.196Z,16.42
2019-04-27T05:28:22.906Z,16.47
2019-04-27T05:29:26.566Z,16.45
2019-04-27T05:30:30.232Z,16.51
2019-04-27T05:31:33.869Z,16.48
2019-04-27T05:32:39.308Z,16.44
2019-04-27T05:33:42.964Z,16.48
2019-04-27T05:34:46.640Z,16.56
2019-04-27T05:35:50.369Z,16.63
2019-04-27T05:36:54.032Z,16.67
2019-04-27T05:38:02.406Z,16.73
2019-04-27T05:39:04.337Z,16.79
2019-04-27T05:40:09.151Z,16.82
2019-04-27T05:41:12.845Z,16.86
2019-04-27T05:42:18.981Z,16.91
2019-04-27T05:43:25.585Z,16.98
2019-04-27T05:44:45.671Z,17.00
2019-04-27T05:46:12.406Z,17.05
2019-04-27T05:47:19.064Z,17.08
2019-04-27T05:48:28.674Z,17.16
2019-04-27T05:49:36.425Z,17.18
2019-04-27T05:50:45.646Z,17.23
2019-04-27T05:51:47.926Z,17.29
2019-04-27T05:52:50.989Z,17.43
2019-04-27T05:53:54.611Z,17.41
2019-04-27T05:54:59.118Z,17.49
2019-04-27T05:56:02.940Z,17.58
2019-04-27T05:57:06.635Z,17.67
2019-04-27T05:58:10.317Z,17.67
2019-04-27T05:59:14.787Z,17.72
2019-04-27T06:00:20.656Z,17.78
2019-04-27T06:01:24.326Z,17.82
2019-04-27T06:02:30.261Z,17.84
2019-04-27T06:03:34.105Z,17.84
2019-04-27T06:04:39.067Z,17.87
2019-04-27T06:05:43.128Z,17.94
2019-04-27T06:06:46.779Z,18.03
2019-04-27T06:07:50.490Z,18.11
2019-04-27T06:08:54.143Z,18.21
2019-04-27T06:09:59.543Z,18.29
2019-04-27T06:11:03.152Z,18.27
2019-04-27T06:12:06.834Z,18.43
2019-04-27T06:13:10.637Z,18.49
2019-04-27T06:14:14.352Z,18.62
2019-04-27T06:15:19.739Z,18.74
2019-04-27T06:16:23.510Z,18.89
2019-04-27T06:17:27.182Z,18.98
2019-04-27T06:18:31.264Z,19.11
2019-04-27T06:19:34.841Z,19.23
2019-04-27T06:20:50.368Z,19.31
2019-04-27T06:21:44.509Z,19.40
2019-04-27T06:22:48.888Z,19.57
2019-04-27T06:23:52.935Z,19.81
2019-04-27T06:24:56.572Z,20.01
2019-04-27T06:26:01.861Z,20.13
2019-04-27T06:27:05.685Z,20.07
2019-04-27T06:28:09.332Z,20.23
2019-04-27T06:29:13.019Z,20.44
2019-04-27T06:30:16.654Z,20.58
2019-04-27T06:31:20.297Z,20.66
2019-04-27T06:32:23.958Z,20.75
2019-04-27T06:33:33.827Z,20.84
2019-04-27T06:34:32.988Z,20.99
2019-04-27T06:35:36.651Z,20.84
2019-04-27T06:36:40.727Z,20.79
2019-04-27T06:37:44.454Z,20.88
2019-04-27T06:38:48.579Z,20.94
2019-04-27T06:39:52.585Z,20.97
2019-04-27T06:40:56.242Z,21.03
2019-04-27T06:42:01.279Z,21.11
2019-04-27T06:43:05.313Z,21.07
2019-04-27T06:44:10.989Z,21.06
2019-04-27T06:45:14.467Z,21.04
2019-04-27T06:46:19.882Z,21.07
2019-04-27T06:47:23.741Z,21.10
2019-04-27T06:48:29.504Z,21.13
2019-04-27T06:49:36.034Z,20.84
2019-04-27T06:50:39.703Z,20.70
2019-04-27T06:51:43.358Z,20.76
2019-04-27T06:52:46.910Z,20.87
2019-04-27T06:53:50.556Z,20.96
2019-04-27T06:54:54.193Z,20.90
2019-04-27T06:55:58.637Z,20.99
2019-04-27T06:57:02.295Z,21.16
2019-04-27T06:58:05.933Z,21.38
2019-04-27T06:59:09.589Z,21.48
2019-04-27T07:00:13.444Z,21.63
2019-04-27T07:01:18.938Z,21.86
2019-04-27T07:02:22.490Z,22.10
2019-04-27T07:03:26.134Z,22.28
2019-04-27T07:04:29.788Z,22.43
2019-04-27T07:05:33.448Z,22.57
2019-04-27T07:06:37.104Z,22.67
2019-04-27T07:07:40.760Z,22.76
2019-04-27T07:08:44.396Z,22.82
2019-04-27T07:09:49.289Z,22.87
2019-04-27T07:10:53.081Z,22.82
2019-04-27T07:11:56.871Z,22.83
2019-04-27T07:13:00.910Z,22.96
2019-04-27T07:14:04.543Z,23.19
2019-04-27T07:15:08.883Z,23.56
2019-04-27T07:16:12.721Z,23.83
2019-04-27T07:17:16.437Z,24.05
2019-04-27T07:18:20.105Z,24.24
2019-04-27T07:19:23.742Z,24.21
2019-04-27T07:20:30.302Z,24.11
2019-04-27T07:21:32.830Z,24.25
2019-04-27T07:22:36.523Z,24.31
2019-04-27T07:23:41.799Z,24.47
2019-04-27T07:24:45.435Z,24.69
2019-04-27T07:25:49.091Z,24.86
2019-04-27T07:26:52.748Z,24.89
2019-04-27T07:27:56.426Z,25.01
2019-04-27T07:29:00.088Z,25.10
2019-04-27T07:30:05.522Z,25.19
2019-04-27T07:31:09.630Z,25.30
2019-04-27T07:32:13.401Z,25.43
2019-04-27T07:33:18.631Z,25.61
2019-04-27T07:34:22.398Z,25.78
2019-04-27T07:35:26.048Z,25.84
2019-04-27T07:36:29.710Z,25.82
2019-04-27T07:37:33.375Z,25.88
2019-04-27T07:38:37.050Z,25.94
2019-04-27T07:39:41.112Z,25.88
2019-04-27T07:40:44.767Z,25.97
2019-04-27T07:41:48.932Z,26.05
2019-04-27T07:42:54.365Z,26.07
2019-04-27T07:43:59.668Z,26.07
2019-04-27T07:45:19.548Z,26.14
2019-04-27T07:46:23.397Z,26.25
2019-04-27T07:47:31.555Z,26.55
2019-04-27T07:48:35.234Z,26.57
2019-04-27T07:49:39.147Z,26.66
2019-04-27T07:50:42.834Z,26.83
2019-04-27T07:51:46.483Z,27.05
2019-04-27T07:52:50.137Z,27.25
2019-04-27T07:53:53.801Z,27.40
2019-04-27T07:54:58.755Z,27.48
2019-04-27T07:56:02.594Z,27.59
2019-04-27T07:57:06.230Z,27.55
2019-04-27T07:58:09.888Z,27.24
2019-04-27T07:59:14.993Z,27.19
2019-04-27T08:00:19.261Z,27.12
2019-04-27T08:01:22.958Z,27.13
2019-04-27T08:02:26.593Z,27.31
2019-04-27T08:03:30.251Z,27.64
2019-04-27T08:04:33.887Z,27.82
2019-04-27T08:05:39.134Z,27.80
2019-04-27T08:06:42.901Z,27.76
2019-04-27T08:07:46.544Z,27.70
2019-04-27T08:08:50.172Z,27.66
2019-04-27T08:09:53.825Z,27.58
2019-04-27T08:10:59.392Z,27.46
2019-04-27T08:12:02.867Z,27.38
2019-04-27T08:13:06.525Z,27.34
2019-04-27T08:14:10.152Z,27.44
2019-04-27T08:15:13.991Z,27.68
2019-04-27T08:16:18.337Z,27.99
2019-04-27T08:17:23.055Z,27.89
2019-04-27T08:18:26.689Z,28.17
2019-04-27T08:19:30.327Z,28.34
2019-04-27T08:20:33.976Z,28.45
2019-04-27T08:21:44.580Z,28.75
2019-04-27T08:22:43.021Z,28.90
2019-04-27T08:23:46.659Z,29.02
2019-04-27T08:24:50.297Z,28.99
2019-04-27T08:25:53.954Z,29.09
2019-04-27T08:27:02.218Z,29.32
2019-04-27T08:28:10.665Z,29.48
2019-04-27T08:29:21.823Z,29.49
2019-04-27T08:30:39.413Z,29.63
2019-04-27T08:31:48.635Z,29.73
2019-04-27T08:32:53.940Z,29.65
2019-04-27T08:33:58.573Z,29.43
2019-04-27T08:35:03.077Z,29.31
2019-04-27T08:36:06.710Z,29.34
2019-04-27T08:37:10.362Z,29.42
2019-04-27T08:38:14.034Z,29.65
2019-04-27T08:39:18.661Z,29.91
2019-04-27T08:40:22.874Z,30.17
2019-04-27T08:41:26.511Z,30.06
2019-04-27T08:42:30.169Z,30.20
2019-04-27T08:43:35.480Z,30.35
2019-04-27T08:44:39.714Z,30.70
2019-04-27T08:45:43.480Z,31.01
2019-04-27T08:46:47.111Z,31.16
2019-04-27T08:47:50.757Z,31.56
2019-04-27T08:48:54.445Z,31.82
2019-04-27T08:49:59.121Z,31.84
2019-04-27T08:51:02.914Z,31.77
2019-04-27T08:52:06.575Z,31.95
2019-04-27T08:53:10.200Z,32.18
2019-04-27T08:54:13.855Z,32.55
2019-04-27T08:55:19.355Z,32.83
2019-04-27T08:56:22.895Z,32.76
2019-04-27T08:57:28.869Z,32.70
2019-04-27T08:58:32.259Z,32.99
2019-04-27T08:59:36.246Z,33.71
2019-04-27T09:00:39.882Z,34.14
2019-04-27T09:01:43.558Z,34.41
2019-04-27T09:02:48.072Z,34.30
2019-04-27T09:03:52.604Z,34.54
2019-04-27T09:04:56.237Z,34.51
2019-04-27T09:05:59.872Z,34.52
2019-04-27T09:07:05.208Z,34.90
2019-04-27T09:08:19.660Z,35.34
2019-04-27T09:09:39.814Z,34.74
2019-04-27T09:10:53.941Z,34.21
2019-04-27T09:12:15.344Z,34.49
2019-04-27T09:13:20.637Z,34.78
2019-04-27T09:14:25.962Z,35.01
2019-04-27T09:15:39.031Z,34.90
2019-04-27T09:16:57.295Z,35.26
2019-04-27T09:17:58.753Z,35.32
2019-04-27T09:19:03.918Z,35.53
2019-04-27T09:20:09.745Z,35.72
2019-04-27T09:21:13.383Z,35.61
2019-04-27T09:22:20.550Z,35.53
2019-04-27T09:23:22.407Z,35.81
2019-04-27T09:24:26.161Z,36.36
2019-04-27T09:25:32.385Z,36.62
2019-04-27T09:26:36.015Z,36.52
2019-04-27T09:27:39.674Z,36.82
2019-04-27T09:28:43.321Z,37.09
2019-04-27T09:29:46.952Z,36.84
2019-04-27T09:30:50.649Z,36.50
2019-04-27T09:31:54.286Z,36.03
2019-04-27T09:32:57.911Z,35.69
2019-04-27T09:34:01.569Z,35.50
2019-04-27T09:35:05.902Z,35.95
2019-04-27T09:36:10.703Z,35.99
2019-04-27T09:37:15.970Z,35.91
2019-04-27T09:38:19.666Z,35.97
2019-04-27T09:39:23.325Z,35.86
2019-04-27T09:40:27.324Z,35.89
2019-04-27T09:41:31.000Z,35.54
2019-04-27T09:42:38.139Z,35.43
2019-04-27T09:43:40.030Z,35.66
2019-04-27T09:44:43.665Z,35.83
2019-04-27T09:45:47.638Z,35.97
2019-04-27T09:46:53.396Z,36.24
2019-04-27T09:47:57.055Z,36.40
2019-04-27T09:49:00.708Z,36.30
2019-04-27T09:50:05.790Z,36.22
2019-04-27T09:51:09.881Z,36.26
2019-04-27T09:52:23.590Z,36.27
2019-04-27T09:53:19.030Z,35.76
2019-04-27T09:54:23.774Z,35.21
2019-04-27T09:55:27.506Z,35.19
2019-04-27T09:56:31.139Z,34.36
2019-04-27T09:57:37.845Z,34.36
2019-04-27T09:58:41.501Z,33.81
2019-04-27T09:59:46.042Z,33.54
2019-04-27T10:00:49.823Z,33.45
2019-04-27T10:01:53.487Z,33.82
2019-04-27T10:02:59.772Z,34.13
2019-04-27T10:04:04.947Z,34.32
2019-04-27T10:05:08.900Z,34.41
2019-04-27T10:06:12.810Z,34.57
2019-04-27T10:07:16.659Z,34.70
2019-04-27T10:08:20.297Z,35.15
2019-04-27T10:09:24.154Z,35.50
2019-04-27T10:10:27.890Z,35.60
2019-04-27T10:11:31.517Z,35.59
2019-04-27T10:12:36.840Z,35.88
2019-04-27T10:13:40.657Z,35.83
2019-04-27T10:14:45.448Z,35.37
2019-04-27T10:15:49.989Z,35.12
2019-04-27T10:16:53.645Z,35.08
2019-04-27T10:17:57.706Z,35.42
2019-04-27T10:19:01.705Z,35.73
2019-04-27T10:20:08.406Z,36.01
2019-04-27T10:21:11.990Z,35.89
2019-04-27T10:22:15.999Z,35.63
2019-04-27T10:23:19.752Z,35.21
2019-04-27T10:24:23.439Z,34.93
2019-04-27T10:25:28.568Z,34.60
2019-04-27T10:26:32.193Z,34.38
2019-04-27T10:27:35.962Z,33.68
2019-04-27T10:28:39.593Z,33.30
2019-04-27T10:29:43.320Z,33.24
2019-04-27T10:30:46.949Z,33.19
2019-04-27T10:31:50.618Z,33.19
2019-04-27T10:32:54.578Z,32.78
2019-04-27T10:33:58.207Z,32.67
2019-04-27T10:35:01.910Z,32.32
2019-04-27T10:36:06.486Z,32.11
2019-04-27T10:37:10.376Z,32.02
2019-04-27T10:38:15.390Z,31.91
2019-04-27T10:39:19.403Z,32.03
2019-04-27T10:40:23.065Z,32.16
2019-04-27T10:41:26.713Z,32.26
2019-04-27T10:42:30.576Z,32.37
2019-04-27T10:43:34.210Z,32.23
2019-04-27T10:44:37.864Z,32.46
2019-04-27T10:45:41.558Z,32.49
2019-04-27T10:46:45.269Z,32.29
2019-04-27T10:47:49.647Z,32.64
2019-04-27T10:48:56.387Z,32.80
2019-04-27T10:50:00.032Z,33.03
2019-04-27T10:51:07.387Z,33.24
2019-04-27T10:52:11.106Z,33.55
2019-04-27T10:53:16.477Z,33.89
2019-04-27T10:54:20.162Z,33.92
2019-04-27T10:55:23.780Z,34.01
2019-04-27T10:56:27.455Z,34.36
2019-04-27T10:57:31.109Z,34.58
2019-04-27T10:58:35.549Z,34.53
2019-04-27T10:59:39.356Z,34.94
2019-04-27T11:00:54.518Z,35.16
2019-04-27T11:01:58.176Z,35.68
2019-04-27T11:03:01.822Z,36.33
2019-04-27T11:04:19.793Z,36.70
2019-04-27T11:05:46.025Z,36.89
2019-04-27T11:06:54.471Z,36.71
2019-04-27T11:08:00.933Z,36.74
2019-04-27T11:09:07.477Z,37.08
2019-04-27T11:10:12.042Z,37.32
2019-04-27T11:11:15.685Z,36.88
2019-04-27T11:12:19.327Z,36.87
2019-04-27T11:13:23.011Z,36.88
2019-04-27T11:14:26.651Z,36.71
2019-04-27T11:15:30.401Z,36.02
2019-04-27T11:16:35.933Z,35.53
2019-04-27T11:17:39.411Z,34.95
2019-04-27T11:18:43.098Z,34.50
2019-04-27T11:19:46.742Z,33.91
2019-04-27T11:20:50.396Z,33.57
2019-04-27T11:21:54.036Z,33.41
2019-04-27T11:23:07.010Z,33.31
2019-04-27T11:24:03.089Z,33.37
2019-04-27T11:25:09.961Z,33.63
2019-04-27T11:26:13.605Z,33.18
2019-04-27T11:27:17.247Z,32.68
2019-04-27T11:28:20.900Z,32.49
2019-04-27T11:29:25.663Z,31.94
2019-04-27T11:30:30.019Z,31.64
2019-04-27T11:31:33.659Z,31.96
2019-04-27T11:32:37.456Z,31.56
2019-04-27T11:33:41.190Z,31.81
2019-04-27T11:35:01.574Z,32.30
2019-04-27T11:36:26.227Z,32.98
2019-04-27T11:37:31.530Z,33.58
2019-04-27T11:38:36.573Z,34.13
2019-04-27T11:39:40.273Z,34.14
2019-04-27T11:40:43.971Z,34.43
2019-04-27T11:41:47.708Z,34.76
2019-04-27T11:42:51.363Z,35.02
2019-04-27T11:43:56.569Z,35.51
2019-04-27T11:45:00.419Z,35.78
2019-04-27T11:46:06.052Z,35.46
2019-04-27T11:47:09.454Z,35.41
2019-04-27T11:48:13.094Z,34.94
2019-04-27T11:49:16.756Z,34.74
2019-04-27T11:50:20.512Z,34.86
2019-04-27T11:51:24.306Z,35.25
2019-04-27T11:52:28.282Z,35.13
2019-04-27T11:53:32.015Z,35.06
2019-04-27T11:54:36.013Z,34.87
2019-04-27T11:55:39.792Z,34.89
2019-04-27T11:56:43.577Z,35.16
2019-04-27T11:57:47.201Z,35.67
2019-04-27T11:58:50.828Z,35.43
2019-04-27T11:59:56.318Z,34.97
2019-04-27T12:01:00.555Z,34.08
2019-04-27T12:02:04.389Z,33.65
2019-04-27T12:03:08.020Z,33.55
2019-04-27T12:04:11.709Z,33.30
2019-04-27T12:05:16.133Z,33.06
2019-04-27T12:06:19.863Z,32.76
2019-04-27T12:07:23.563Z,32.15
2019-04-27T12:08:27.198Z,32.26
2019-04-27T12:09:30.830Z,32.56
2019-04-27T12:10:36.215Z,32.54
2019-04-27T12:11:41.594Z,32.73
2019-04-27T12:12:46.382Z,33.06
2019-04-27T12:13:50.107Z,32.96
2019-04-27T12:14:55.923Z,32.95
2019-04-27T12:15:59.509Z,32.57
2019-04-27T12:17:03.172Z,32.10
2019-04-27T12:18:08.916Z,31.86
2019-04-27T12:19:12.854Z,31.74
2019-04-27T12:20:17.941Z,31.82
2019-04-27T12:21:21.808Z,32.08
2019-04-27T12:22:25.464Z,32.19
2019-04-27T12:23:35.968Z,32.35
2019-04-27T12:24:35.613Z,32.24
2019-04-27T12:25:39.361Z,32.30
2019-04-27T12:27:01.146Z,32.36
2019-04-27T12:28:22.520Z,32.50
2019-04-27T12:29:27.908Z,32.52
2019-04-27T12:30:49.453Z,32.78
2019-04-27T12:31:53.207Z,32.90
2019-04-27T12:32:56.885Z,32.84
2019-04-27T12:34:00.531Z,33.12
2019-04-27T12:35:06.701Z,32.89
2019-04-27T12:36:10.645Z,32.62
2019-04-27T12:37:15.740Z,32.57
2019-04-27T12:38:19.793Z,32.66
2019-04-27T12:39:23.468Z,32.86
2019-04-27T12:40:27.328Z,32.50
2019-04-27T12:41:31.095Z,32.75
2019-04-27T12:42:36.374Z,33.08
2019-04-27T12:43:40.445Z,33.35
2019-04-27T12:44:44.831Z,33.61
2019-04-27T12:45:48.633Z,33.47
2019-04-27T12:46:52.461Z,33.31
2019-04-27T12:47:56.712Z,33.52
2019-04-27T12:49:00.394Z,33.63
2019-04-27T12:50:08.726Z,33.40
2019-04-27T12:51:12.478Z,33.03
2019-04-27T12:52:17.706Z,32.88
2019-04-27T12:53:28.831Z,33.05
2019-04-27T12:54:37.122Z,33.20
2019-04-27T12:55:46.507Z,33.25
2019-04-27T12:57:08.312Z,33.18
2019-04-27T12:58:16.740Z,33.10
2019-04-27T12:59:27.743Z,33.06
2019-04-27T13:00:36.019Z,32.63
2019-04-27T13:01:48.977Z,32.13
2019-04-27T13:02:55.590Z,31.72
2019-04-27T13:03:59.513Z,31.25
2019-04-27T13:05:05.588Z,30.77
2019-04-27T13:06:09.488Z,30.72
2019-04-27T13:07:16.023Z,30.72
2019-04-27T13:08:19.737Z,30.25
2019-04-27T13:09:23.402Z,30.10
2019-04-27T13:10:27.051Z,29.91
2019-04-27T13:11:31.097Z,29.71
2019-04-27T13:12:35.773Z,29.32
2019-04-27T13:13:39.657Z,29.19
2019-04-27T13:14:45.615Z,29.07
2019-04-27T13:15:51.018Z,28.99
2019-04-27T13:16:56.492Z,28.86
2019-04-27T13:18:01.147Z,28.64
2019-04-27T13:19:06.128Z,28.52
2019-04-27T13:20:10.122Z,28.53
2019-04-27T13:21:13.799Z,28.48
2019-04-27T13:22:17.420Z,28.33
2019-04-27T13:23:21.071Z,28.13
2019-04-27T13:24:26.100Z,28.10
2019-04-27T13:25:30.254Z,28.11
2019-04-27T13:26:33.885Z,28.07
2019-04-27T13:27:37.685Z,28.04
2019-04-27T13:28:42.001Z,28.04
2019-04-27T13:29:46.674Z,28.00
2019-04-27T13:30:50.475Z,27.96
2019-04-27T13:31:55.976Z,28.00
2019-04-27T13:32:59.461Z,27.92
2019-04-27T13:34:03.119Z,27.89
2019-04-27T13:35:08.459Z,27.85
2019-04-27T13:36:14.346Z,27.81
2019-04-27T13:37:19.829Z,27.81
2019-04-27T13:38:23.550Z,27.84
2019-04-27T13:39:30.222Z,27.78
2019-04-27T13:40:38.726Z,27.68
2019-04-27T13:41:42.342Z,27.55
2019-04-27T13:42:53.526Z,27.39
2019-04-27T13:43:57.497Z,27.27
2019-04-27T13:45:02.988Z,27.21
2019-04-27T13:46:26.054Z,27.17
2019-04-27T13:47:40.514Z,27.04
2019-04-27T13:49:02.021Z,26.97
2019-04-27T13:50:14.156Z,26.88
2019-04-27T13:51:31.823Z,26.68
2019-04-27T13:52:36.269Z,26.48
2019-04-27T13:53:42.975Z,26.33
2019-04-27T13:54:50.097Z,26.20
2019-04-27T13:55:53.826Z,26.18
2019-04-27T13:56:58.928Z,26.15
2019-04-27T13:58:02.642Z,26.12
2019-04-27T13:59:07.754Z,26.08
2019-04-27T14:00:13.861Z,25.96
2019-04-27T14:01:17.527Z,25.85
2019-04-27T14:02:24.231Z,25.77
2019-04-27T14:03:29.065Z,25.73